createdAt,value
2023-01-28T00:01:52.885Z,65.24
2023-01-28T00:04:19.675Z,65.13
2023-01-28T00:06:46.991Z,65.35
2023-01-28T00:09:14.102Z,65.54
2023-01-28T00:11:41.763Z,65.73
2023-01-28T00:14:12.951Z,65.97
2023-01-28T00:16:43.281Z,65.94
2023-01-28T00:19:10.321Z,66.15
2023-01-28T00:21:38.435Z,66.02
2023-01-28T00:24:06.635Z,66.20
2023-01-28T00:26:33.587Z,66.55
2023-01-28T00:29:01.020Z,66.69
2023-01-28T00:31:28.494Z,66.68
2023-01-28T00:33:56.160Z,66.80
2023-01-28T00:36:24.804Z,66.79
2023-01-28T00:38:53.134Z,66.83
2023-01-28T00:41:21.858Z,66.86
2023-01-28T00:43:51.256Z,66.85
2023-01-28T00:46:18.400Z,66.88
2023-01-28T00:48:45.506Z,66.67
2023-01-28T00:51:14.482Z,66.62
2023-01-28T00:53:41.551Z,66.52
2023-01-28T00:56:08.961Z,66.09
2023-01-28T00:58:35.861Z,65.91
2023-01-28T01:01:08.292Z,65.97
2023-01-28T01:03:36.210Z,66.33
2023-01-28T01:06:04.171Z,66.23
2023-01-28T01:08:39.509Z,66.28
2023-01-28T01:11:07.092Z,66.33
2023-01-28T01:13:36.884Z,66.50
2023-01-28T01:16:16.935Z,66.55
2023-01-28T01:18:43.883Z,66.29
2023-01-28T01:21:14.219Z,66.52
2023-01-28T01:23:41.465Z,66.53
2023-01-28T01:26:08.523Z,66.40
2023-01-28T01:28:35.753Z,66.35
2023-01-28T01:31:07.738Z,66.23
2023-01-28T01:33:35.087Z,66.29
2023-01-28T01:36:01.935Z,66.29
2023-01-28T01:38:29.708Z,66.11
2023-01-28T01:41:00.196Z,66.12
2023-01-28T01:44:00.763Z,66.02
2023-01-28T01:46:36.925Z,65.80
2023-01-28T01:53:11.246Z,65.59
2023-01-28T01:55:40.699Z,65.71
2023-01-28T01:58:09.642Z,65.78
2023-01-28T02:00:40.475Z,65.91
2023-01-28T02:03:10.145Z,65.80
2023-01-28T02:05:37.949Z,66.09
2023-01-28T02:08:22.625Z,66.09
2023-01-28T02:10:53.810Z,66.11
2023-01-28T02:13:23.007Z,66.14
2023-01-28T02:15:50.662Z,66.38
2023-01-28T02:18:17.518Z,66.20
2023-01-28T02:20:56.845Z,66.17
2023-01-28T02:24:01.914Z,66.09
2023-01-28T02:27:00.273Z,66.01
2023-01-28T02:29:30.289Z,66.14
2023-01-28T02:32:15.289Z,65.94
2023-01-28T02:34:48.079Z,65.96
2023-01-28T02:37:39.149Z,65.84
2023-01-28T02:40:11.470Z,65.88
2023-01-28T02:42:39.845Z,66.01
2023-01-28T02:45:20.776Z,65.86
2023-01-28T02:47:59.169Z,66.07
2023-01-28T02:50:39.605Z,66.22
2023-01-28T02:53:28.665Z,66.37
2023-01-28T02:56:07.717Z,66.46
2023-01-28T02:58:46.989Z,66.39
2023-01-28T03:01:28.137Z,66.64
2023-01-28T03:04:09.725Z,66.64
2023-01-28T03:06:44.233Z,66.47
2023-01-28T03:09:26.569Z,66.64
2023-01-28T03:12:18.910Z,66.59
2023-01-28T03:15:07.346Z,66.54
2023-01-28T03:18:01.168Z,66.27
2023-01-28T03:20:53.641Z,66.34
2023-01-28T03:23:41.668Z,66.24
2023-01-28T03:26:30.966Z,66.48
2023-01-28T03:29:20.039Z,66.33
2023-01-28T03:32:05.637Z,66.35
2023-01-28T03:34:51.772Z,66.21
2023-01-28T03:37:19.011Z,66.24
2023-01-28T03:40:06.758Z,66.15
2023-01-28T03:42:36.174Z,66.11
2023-01-28T03:45:09.739Z,66.00
2023-01-28T03:47:40.166Z,66.12
2023-01-28T03:50:08.791Z,65.87
2023-01-28T03:52:43.995Z,65.77
2023-01-28T03:55:30.032Z,65.87
2023-01-28T04:10:43.655Z,65.81
2023-01-28T04:13:19.274Z,64.96
2023-01-28T04:15:46.636Z,64.82
2023-01-28T04:18:15.347Z,64.57
2023-01-28T04:20:42.648Z,64.74
2023-01-28T04:23:09.783Z,64.80
2023-01-28T04:25:39.145Z,64.60
2023-01-28T04:28:09.265Z,64.46
2023-01-28T04:30:36.704Z,64.36
2023-01-28T04:33:30.398Z,64.16
2023-01-28T04:36:16.288Z,64.32
2023-01-28T04:39:02.269Z,64.45
2023-01-28T04:41:39.233Z,64.34
2023-01-28T04:44:16.906Z,64.47
2023-01-28T04:47:03.922Z,64.38
2023-01-28T04:49:41.831Z,64.64
2023-01-28T04:52:36.715Z,64.63
2023-01-28T04:55:33.706Z,64.60
2023-01-28T04:58:02.154Z,64.58
2023-01-28T05:00:30.507Z,64.35
2023-01-28T05:02:57.593Z,64.63
2023-01-28T05:05:27.078Z,64.38
2023-01-28T05:08:03.338Z,64.34
2023-01-28T05:10:31.114Z,64.30
2023-01-28T05:12:58.169Z,64.42
2023-01-28T05:15:25.235Z,64.54
2023-01-28T05:17:55.696Z,64.57
2023-01-28T05:20:23.201Z,64.57
2023-01-28T05:22:53.857Z,64.43
2023-01-28T05:25:23.906Z,64.72
2023-01-28T05:27:51.428Z,64.83
2023-01-28T05:30:19.797Z,64.88
2023-01-28T05:32:47.323Z,65.09
2023-01-28T05:35:21.292Z,65.15
2023-01-28T05:37:48.204Z,65.14
2023-01-28T05:40:17.663Z,65.31
2023-01-28T05:42:44.956Z,65.20
2023-01-28T05:45:49.267Z,65.39
2023-01-28T05:48:39.490Z,65.49
2023-01-28T05:51:18.388Z,65.54
2023-01-28T05:53:54.266Z,65.59
2023-01-28T05:56:23.090Z,65.67
2023-01-28T05:58:50.047Z,65.88
2023-01-28T06:01:21.319Z,65.86
2023-01-28T06:03:51.971Z,65.96
2023-01-28T06:06:19.061Z,65.92
2023-01-28T06:08:46.919Z,66.12
2023-01-28T06:11:20.139Z,66.11
2023-01-28T06:13:47.917Z,66.13
2023-01-28T06:16:48.017Z,66.12
2023-01-28T06:19:35.425Z,66.16
2023-01-28T06:22:05.452Z,66.37
2023-01-28T06:24:32.902Z,66.42
2023-01-28T06:26:59.868Z,66.25
2023-01-28T06:29:27.203Z,66.43
2023-01-28T06:31:54.306Z,66.50
2023-01-28T06:34:21.330Z,66.51
2023-01-28T06:36:48.230Z,66.64
2023-01-28T06:39:15.133Z,66.43
2023-01-28T06:41:42.031Z,66.54
2023-01-28T06:44:11.938Z,66.56
2023-01-28T06:46:38.944Z,66.70
2023-01-28T06:49:05.856Z,66.78
2023-01-28T06:51:33.000Z,66.77
2023-01-28T06:54:00.663Z,66.91
2023-01-28T06:56:27.631Z,66.86
2023-01-28T06:58:54.661Z,67.14
2023-01-28T07:01:21.710Z,67.08
2023-01-28T07:03:48.801Z,66.95
2023-01-28T07:06:19.803Z,66.83
2023-01-28T07:08:47.201Z,66.91
2023-01-28T07:11:14.790Z,66.86
2023-01-28T07:13:43.054Z,66.66
2023-01-28T07:16:10.155Z,66.87
2023-01-28T07:18:37.212Z,66.52
2023-01-28T07:21:04.948Z,66.44
2023-01-28T07:23:32.045Z,66.26
2023-01-28T07:26:03.068Z,66.51
2023-01-28T07:28:32.158Z,66.55
2023-01-28T07:30:59.450Z,66.57
2023-01-28T07:33:26.864Z,66.45
2023-01-28T07:35:53.855Z,66.41
2023-01-28T07:38:21.060Z,66.66
2023-01-28T07:40:48.150Z,66.77
2023-01-28T07:43:15.506Z,66.64
2023-01-28T07:45:42.747Z,66.82
2023-01-28T07:48:11.415Z,66.82
2023-01-28T07:50:39.702Z,66.89
2023-01-28T07:53:09.306Z,66.84
2023-01-28T07:55:36.820Z,66.91
2023-01-28T07:58:05.611Z,66.80
2023-01-28T08:00:33.936Z,66.54
2023-01-28T08:03:03.340Z,66.52
2023-01-28T08:05:38.919Z,66.39
2023-01-28T08:08:07.603Z,66.07
2023-01-28T08:10:34.490Z,65.95
2023-01-28T08:13:01.893Z,65.83
2023-01-28T08:15:29.000Z,65.87
2023-01-28T08:17:58.170Z,65.75
2023-01-28T08:20:26.293Z,65.68
2023-01-28T08:22:53.246Z,65.51
2023-01-28T08:25:20.382Z,65.67
2023-01-28T08:27:47.894Z,65.50
2023-01-28T08:30:15.266Z,65.42
2023-01-28T08:32:42.579Z,65.23
2023-01-28T08:35:11.942Z,65.21
2023-01-28T08:37:38.757Z,65.20
2023-01-28T08:40:06.807Z,65.32
2023-01-28T08:42:35.821Z,65.20
2023-01-28T08:45:03.422Z,65.40
2023-01-28T08:47:30.545Z,65.11
2023-01-28T08:50:00.988Z,65.10
2023-01-28T08:52:27.839Z,64.98
2023-01-28T08:54:55.440Z,65.04
2023-01-28T08:57:22.684Z,65.20
2023-01-28T08:59:49.582Z,65.04
2023-01-28T09:02:30.843Z,65.09
2023-01-28T09:04:58.785Z,64.94
2023-01-28T09:07:25.727Z,64.78
2023-01-28T09:09:52.556Z,64.76
2023-01-28T09:12:20.456Z,64.37
2023-01-28T09:14:47.493Z,64.12
2023-01-28T09:17:14.685Z,64.05
2023-01-28T09:19:41.834Z,63.83
2023-01-28T09:22:09.102Z,63.77
2023-01-28T09:24:38.647Z,63.76
2023-01-28T09:27:06.324Z,63.73
2023-01-28T09:29:34.228Z,63.55
2023-01-28T09:32:01.164Z,63.64
2023-01-28T09:34:28.279Z,63.37
2023-01-28T09:36:55.554Z,63.07
2023-01-28T09:39:24.723Z,63.02
2023-01-28T09:42:33.569Z,63.23
2023-01-28T09:45:15.780Z,63.01
2023-01-28T09:47:50.552Z,62.70
2023-01-28T09:50:34.724Z,62.59
2023-01-28T09:53:24.858Z,62.25
2023-01-28T09:55:56.619Z,62.20
2023-01-28T09:58:23.731Z,62.00
2023-01-28T10:01:00.770Z,61.94
2023-01-28T10:03:28.945Z,61.92
2023-01-28T10:06:17.444Z,61.59
2023-01-28T10:08:52.092Z,61.21
2023-01-28T10:11:47.392Z,60.78
2023-01-28T10:14:29.667Z,60.48
2023-01-28T10:17:03.215Z,60.36
2023-01-28T10:19:35.844Z,60.53
2023-01-28T10:22:08.653Z,60.11
2023-01-28T10:24:45.893Z,59.82
2023-01-28T10:27:16.335Z,59.65
2023-01-28T10:29:46.079Z,59.56
2023-01-28T10:32:18.838Z,59.79
2023-01-28T10:34:45.981Z,59.87
2023-01-28T10:37:13.307Z,59.76
2023-01-28T10:39:42.108Z,59.64
2023-01-28T10:42:23.692Z,59.02
2023-01-28T10:44:53.203Z,58.46
2023-01-28T10:47:30.856Z,58.23
2023-01-28T10:49:59.385Z,58.02
2023-01-28T10:52:26.709Z,58.14
2023-01-28T10:55:02.135Z,58.02
2023-01-28T10:57:29.634Z,57.97
2023-01-28T10:59:56.525Z,57.69
2023-01-28T11:02:31.731Z,57.44
2023-01-28T11:05:18.204Z,57.39
2023-01-28T11:07:45.411Z,57.25
2023-01-28T11:10:27.164Z,57.18
2023-01-28T11:12:58.713Z,57.11
2023-01-28T11:15:26.036Z,57.11
2023-01-28T11:18:06.037Z,56.97
2023-01-28T11:20:41.226Z,56.96
2023-01-28T11:23:18.958Z,56.67
2023-01-28T11:25:46.967Z,56.25
2023-01-28T11:28:17.290Z,56.36
2023-01-28T11:30:44.543Z,56.06
2023-01-28T11:33:19.582Z,55.82
2023-01-28T11:36:05.736Z,55.79
2023-01-28T11:38:34.055Z,55.93
2023-01-28T11:41:01.198Z,55.78
2023-01-28T11:43:30.013Z,55.69
2023-01-28T11:46:06.793Z,55.48
2023-01-28T11:48:37.239Z,55.08
2023-01-28T11:51:08.016Z,54.97
2023-01-28T11:53:42.279Z,54.86
2023-01-28T11:56:15.080Z,54.77
2023-01-28T11:59:19.491Z,54.74
2023-01-28T12:02:02.355Z,54.65
2023-01-28T12:04:46.231Z,54.76
2023-01-28T12:07:32.469Z,54.65
2023-01-28T12:10:21.998Z,54.57
2023-01-28T15:56:13.475Z,62.63
2023-01-28T15:58:42.634Z,60.11
2023-01-28T16:01:15.987Z,59.63
2023-01-28T16:03:45.447Z,59.06
2023-01-28T16:06:19.089Z,58.87
2023-01-28T16:08:59.208Z,58.59
2023-01-28T16:11:28.947Z,58.24
2023-01-28T16:13:58.262Z,58.07
2023-01-28T16:16:37.749Z,57.85
2023-01-28T16:19:07.211Z,57.76
2023-01-28T16:21:44.211Z,57.66
2023-01-28T16:24:43.891Z,57.48
2023-01-28T16:27:23.643Z,57.34
2023-01-28T16:29:52.049Z,57.11
2023-01-28T16:32:30.849Z,57.01
2023-01-28T16:34:59.561Z,57.08
2023-01-28T16:37:27.984Z,57.06
2023-01-28T16:39:58.104Z,56.81
2023-01-28T16:42:29.186Z,56.77
2023-01-28T16:44:57.472Z,56.78
2023-01-28T16:47:25.856Z,56.81
2023-01-28T16:49:54.340Z,56.63
2023-01-28T16:52:22.707Z,56.66
2023-01-28T16:54:50.997Z,56.90
2023-01-28T16:57:20.591Z,56.52
2023-01-28T16:59:49.557Z,56.66
2023-01-28T17:02:18.279Z,56.68
2023-01-28T17:04:47.074Z,56.72
2023-01-28T17:07:15.467Z,56.91
2023-01-28T17:09:45.683Z,56.68
2023-01-28T17:12:14.260Z,56.73
2023-01-28T17:14:44.074Z,57.02
2023-01-28T17:17:13.274Z,57.00
2023-01-28T17:19:44.222Z,56.99
2023-01-28T17:22:12.534Z,57.10
2023-01-28T17:24:41.595Z,56.94
2023-01-28T17:27:10.408Z,56.98
2023-01-28T17:29:38.766Z,57.06
2023-01-28T17:32:07.239Z,57.08
2023-01-28T17:34:36.142Z,57.15
2023-01-28T17:37:06.059Z,57.31
2023-01-28T17:39:34.436Z,57.22
2023-01-28T17:42:02.820Z,57.28
2023-01-28T17:44:32.132Z,57.49
2023-01-28T17:47:01.437Z,57.54
2023-01-28T17:49:30.316Z,57.80
2023-01-28T17:51:58.709Z,57.77
2023-01-28T17:54:27.115Z,57.77
2023-01-28T17:56:56.072Z,57.88
2023-01-28T17:59:25.871Z,57.88
2023-01-28T18:01:55.106Z,57.72
2023-01-28T18:04:23.468Z,58.03
2023-01-28T18:06:52.261Z,57.99
2023-01-28T18:09:20.843Z,58.17
2023-01-28T18:11:51.976Z,58.26
2023-01-28T18:14:20.575Z,58.46
2023-01-28T18:16:48.855Z,58.34
2023-01-28T18:19:17.340Z,58.39
2023-01-28T18:21:53.680Z,58.47
2023-01-28T18:24:27.395Z,58.43
2023-01-28T18:26:58.970Z,58.69
2023-01-28T18:29:28.031Z,58.74
2023-01-28T18:31:56.646Z,58.72
2023-01-28T18:34:26.129Z,58.89
2023-01-28T18:36:55.182Z,59.20
2023-01-28T18:39:23.741Z,59.01
2023-01-28T18:41:57.758Z,59.06
2023-01-28T18:44:30.176Z,59.11
2023-01-28T18:46:58.624Z,59.49
2023-01-28T18:49:26.900Z,59.47
2023-01-28T18:51:55.086Z,59.53
2023-01-28T18:54:24.237Z,59.91
2023-01-28T18:56:52.848Z,60.03
2023-01-28T18:59:21.537Z,60.10
2023-01-28T19:01:50.307Z,60.16
2023-01-28T19:04:19.429Z,60.09
2023-01-28T19:06:47.704Z,60.26
2023-01-28T19:09:16.265Z,60.41
2023-01-28T19:11:45.156Z,60.58
2023-01-28T19:14:14.702Z,60.65
2023-01-28T19:16:44.555Z,60.82
2023-01-28T19:19:12.993Z,60.81
2023-01-28T19:21:42.908Z,61.00
2023-01-28T19:24:14.146Z,61.22
2023-01-28T19:26:44.203Z,61.35
2023-01-28T19:29:15.519Z,61.56
2023-01-28T19:31:49.244Z,61.77
2023-01-28T19:34:17.818Z,61.72
2023-01-28T19:36:46.949Z,61.89
2023-01-28T19:39:15.304Z,61.84
2023-01-28T19:41:44.796Z,61.88
2023-01-28T19:44:13.653Z,61.94
2023-01-28T19:46:42.210Z,62.10
2023-01-28T19:49:12.515Z,62.18
2023-01-28T19:51:42.390Z,62.19
2023-01-28T19:54:10.911Z,62.36
2023-01-28T20:08:18.466Z,62.53
2023-01-28T20:10:47.815Z,61.90
2023-01-28T20:13:14.829Z,61.87
2023-01-28T20:15:41.859Z,61.95
2023-01-28T20:18:09.289Z,61.83
2023-01-28T20:20:36.582Z,62.08
2023-01-28T20:23:05.154Z,62.05
2023-01-28T20:25:32.553Z,62.11
2023-01-28T20:27:59.780Z,62.04
2023-01-28T20:30:26.525Z,62.32
2023-01-28T20:32:59.933Z,62.22
2023-01-28T20:35:27.073Z,62.26
2023-01-28T20:37:55.763Z,62.29
2023-01-28T20:40:23.770Z,62.25
2023-01-28T20:42:50.534Z,62.43
2023-01-28T20:45:19.235Z,62.46
2023-01-28T20:47:47.821Z,62.32
2023-01-28T20:50:15.375Z,62.41
2023-01-28T20:52:42.636Z,62.49
2023-01-28T20:55:10.271Z,62.38
2023-01-28T20:57:37.820Z,62.32
2023-01-28T21:00:06.102Z,62.25
2023-01-28T21:02:37.076Z,62.29
2023-01-28T21:05:04.701Z,62.19
2023-01-28T21:07:31.651Z,62.39
2023-01-28T21:10:02.086Z,62.28
2023-01-28T21:12:29.888Z,62.37
2023-01-28T21:14:57.210Z,62.52
2023-01-28T21:17:25.835Z,62.48
2023-01-28T21:19:54.076Z,62.57
2023-01-28T21:22:21.052Z,62.57
2023-01-28T21:24:50.764Z,62.71
2023-01-28T21:27:18.110Z,62.69
2023-01-28T21:29:44.960Z,62.69
2023-01-28T21:32:15.401Z,62.77
2023-01-28T21:34:42.452Z,62.89
2023-01-28T21:37:09.709Z,63.12
2023-01-28T21:39:36.526Z,63.17
2023-01-28T21:42:03.632Z,63.15
2023-01-28T21:44:30.562Z,63.09
2023-01-28T21:46:57.496Z,63.22
2023-01-28T21:49:24.316Z,63.31
2023-01-28T21:51:52.322Z,63.42
2023-01-28T21:54:19.247Z,63.36
2023-01-28T21:56:48.625Z,63.44
2023-01-28T21:59:28.167Z,63.48
2023-01-28T22:02:00.757Z,63.75
2023-01-28T22:04:36.045Z,63.71
2023-01-28T22:07:04.259Z,63.78
2023-01-28T22:09:33.265Z,63.62
2023-01-28T22:12:04.657Z,63.77
2023-01-28T22:14:32.569Z,63.76
2023-01-28T22:16:59.417Z,63.69
2023-01-28T22:19:26.368Z,63.69
2023-01-28T22:21:53.207Z,64.01
2023-01-28T22:24:24.633Z,64.12
2023-01-28T22:26:52.545Z,64.11
2023-01-28T22:29:20.168Z,64.13
2023-01-28T22:31:48.360Z,64.23
2023-01-28T22:34:16.126Z,64.19
2023-01-28T22:36:43.437Z,64.23
2023-01-28T22:39:14.679Z,64.34
2023-01-28T22:41:41.743Z,64.17
2023-01-28T22:44:08.906Z,64.27
2023-01-28T22:46:35.781Z,64.33
2023-01-28T22:49:02.825Z,64.33
2023-01-28T22:51:32.673Z,64.38
2023-01-28T22:53:59.645Z,64.20
2023-01-28T22:56:27.240Z,64.20
2023-01-28T22:58:56.588Z,64.41
2023-01-28T23:01:25.211Z,64.41
2023-01-28T23:03:52.431Z,64.36
2023-01-28T23:06:21.974Z,64.38
2023-01-28T23:08:50.208Z,64.35
2023-01-28T23:11:28.902Z,64.45
2023-01-28T23:14:16.580Z,64.29
2023-01-28T23:17:02.744Z,64.27
2023-01-28T23:19:50.051Z,64.40
2023-01-28T23:22:43.056Z,64.40
2023-01-28T23:25:10.438Z,64.51
2023-01-28T23:27:37.345Z,64.63
2023-01-28T23:30:09.472Z,64.59
2023-01-28T23:32:39.452Z,64.67
2023-01-28T23:35:10.520Z,64.88
2023-01-28T23:37:41.151Z,64.89
2023-01-28T23:40:10.808Z,64.99
2023-01-28T23:42:37.663Z,65.12
2023-01-28T23:45:08.711Z,65.22
2023-01-28T23:47:36.516Z,65.25
2023-01-28T23:50:03.760Z,65.37
2023-01-28T23:52:34.017Z,65.37
2023-01-28T23:55:00.832Z,65.46
2023-01-28T23:57:28.156Z,65.56
2023-01-28T23:59:54.921Z,65.64
